CYZVCYNA

Guest
Details From CYZV - Sept Iles
To CYNA - Natashquan
Flight Number -
Tags Generated
Created
Modified
Stats Distance 172 nm / 319 km
Max Altitude 0 ft / 0 m
Waypoints 2
Social Downloads 1
Likes 0
Share VATSIM

Download

Looking for another format? Having issues loading an existing format? Contact us
Advertisement - Login to hide

Notes

Generated

Route

CYZV CYNA

ID Type Via Altitude Latitude Longitude Leg Dist Tot Dist Heading (true) Name
O CYZV APT - 0 ft / 0 m 50.22972˚ -66.27694˚ - 0 nm - -
O CYNA APT - 0 ft / 0 m 50.19296˚ -61.79743˚ 172 nm 172 nm 89° / 92° -

Altitude Profile

Advertisement - Login to hide

Weather


0- 5 10 15 20 25 30 35+ Temperature / ° C

Clouds and Precipitation
Forecast for 2018-05-25 06:00 UTC. Updated 2 hours ago

Ground ~20,000 ft ~40,000 ft Winds

CYZV

Details ICAO CYZV (YZV)
Name SEPT ILES
Region Canada
Timezone America/Montreal (UTC-4.0)
Stats Elevation 180 ft / 55 m (AMSL)
Location 50.223890° -66.267501°
Runways 3
Magnetic Variation 18.737° W

METAR

CYZV 250700Z 06008KT 15SM OVC040 03/02 A2962 RMK SC8 SLP035

Decode

TAF

TAF CYZV 250538Z 2506/2606 VRB03KT P6SM FEW050 OVC070 TEMPO 2506/2509 4SM -SNRA BR FM250900 06008KT P6SM -RA OVC040 TEMPO 2509/2511 3SM -RA BR SCT004 OVC015 PROB30 2509/2511 2SM -DZ BR OVC004 FM251100 08005KT 4SM -RA -DZ BR OVC006 TEMPO 2511/2516 P6SM NSW OVC010 PROB30 2511/2514 2SM -DZ BR OVC004 FM251600 10011KT P6SM OVC012 BECMG 2522/2524 VRB03KT FM260400 32005KT P6SM FEW012 RMK NXT FCST BY 251200Z

Decode

Departure Runways

ID Width Length Bearing (true) Bearing (mag) Surface Threshold Offset Overrun Length
05 200 ft / 61 m 5,936 ft / 1,809 m 29.45° 48.19° Asphalt 0 ft / 0 m 0 ft / 0 m
09 150 ft / 46 m 6,647 ft / 2,026 m 69.47° 88.21° Asphalt 0 ft / 0 m 0 ft / 0 m
13 200 ft / 61 m 6,055 ft / 1,846 m 109.55° 128.29° Asphalt 0 ft / 0 m 0 ft / 0 m
23 200 ft / 61 m 5,936 ft / 1,809 m 209.46° 228.20° Asphalt 0 ft / 0 m 0 ft / 0 m
27 150 ft / 46 m 6,647 ft / 2,026 m 249.49° 268.23° Asphalt 0 ft / 0 m 0 ft / 0 m
31 200 ft / 61 m 6,055 ft / 1,846 m 289.57° 308.31° Asphalt 0 ft / 0 m 0 ft / 0 m

CYNA

Details ICAO CYNA (YNA)
Name NATASHQUAN
Region Canada
Timezone America/Montreal (UTC-4.0)
Stats Elevation 39 ft / 12 m (AMSL)
Location 50.190084° -61.788947°
Runways 1
Magnetic Variation 19.385° W

METAR

CYNA 250700Z AUTO 15009G15KT 9SM FEW065 BKN084 OVC140 02/01 A2974 RMK SLP072

Decode

TAF

TAF CYNA 250740Z 2508/2520 15012KT P6SM BKN080 OVC140 PROB30 2510/2513 2SM BR BKN006 OVC040 FM251300 12012KT P6SM BKN040 TEMPO 2513/2520 P6SM -SHRA RMK FCST BASED ON AUTO OBS. NXT FCST BY 251400Z

Decode

Destination Runways

ID Width Length Bearing (true) Bearing (mag) Surface Threshold Offset Overrun Length
14 100 ft / 30 m 4,486 ft / 1,367 m 117.90° 137.28° Asphalt 0 ft / 0 m 0 ft / 0 m
32 100 ft / 30 m 4,486 ft / 1,367 m 297.91° 317.29° Asphalt 0 ft / 0 m 0 ft / 0 m

Popular Alternatives